createdAt,value
2022-09-07T00:00:42.052Z,16.70
2022-09-07T00:05:45.983Z,16.70
2022-09-07T00:10:56.890Z,16.70
2022-09-07T00:15:59.444Z,16.70
2022-09-07T00:21:05.081Z,16.70
2022-09-07T00:26:18.820Z,16.60
2022-09-07T00:31:22.887Z,16.70
2022-09-07T00:36:25.468Z,16.70
2022-09-07T00:41:27.999Z,16.60
2022-09-07T00:46:34.369Z,16.60
2022-09-07T00:51:42.177Z,16.60
2022-09-07T00:56:46.601Z,16.60
2022-09-07T01:01:49.153Z,16.70
2022-09-07T01:06:51.667Z,16.70
2022-09-07T01:11:57.536Z,16.70
2022-09-07T01:16:59.575Z,16.60
2022-09-07T01:22:20.442Z,16.50
2022-09-07T01:27:56.638Z,16.50
2022-09-07T01:33:01.940Z,16.50
2022-09-07T01:38:31.907Z,16.40
2022-09-07T01:43:45.973Z,16.40
2022-09-07T01:48:51.336Z,16.40
2022-09-07T01:53:57.799Z,16.40
2022-09-07T01:59:05.387Z,16.40
2022-09-07T02:04:29.577Z,16.30
2022-09-07T02:09:38.747Z,16.40
2022-09-07T02:14:47.308Z,16.30
2022-09-07T02:19:55.876Z,16.30
2022-09-07T02:25:02.266Z,16.30
2022-09-07T02:30:05.951Z,16.30
2022-09-07T02:35:08.668Z,16.20
2022-09-07T02:40:11.525Z,16.20
2022-09-07T02:45:14.953Z,16.20
2022-09-07T02:50:31.943Z,16.20
2022-09-07T02:55:43.012Z,16.10
2022-09-07T03:01:20.314Z,16.10
2022-09-07T03:06:45.300Z,16.10
2022-09-07T03:11:48.869Z,16.00
2022-09-07T03:16:53.824Z,16.00
2022-09-07T03:21:55.974Z,16.00
2022-09-07T03:26:58.533Z,16.00
2022-09-07T03:32:00.635Z,15.90
2022-09-07T03:37:02.870Z,16.00
2022-09-07T03:42:05.255Z,16.00
2022-09-07T03:47:07.376Z,16.10
2022-09-07T03:52:10.503Z,16.10
2022-09-07T03:57:13.344Z,16.10
2022-09-07T04:02:15.599Z,16.10
2022-09-07T04:07:17.850Z,16.00
2022-09-07T04:12:20.031Z,16.00
2022-09-07T04:17:22.151Z,16.00
2022-09-07T04:22:24.252Z,16.00
2022-09-07T04:27:26.368Z,15.90
2022-09-07T04:32:28.501Z,15.90
2022-09-07T04:37:30.746Z,15.90
2022-09-07T04:42:32.938Z,15.90
2022-09-07T04:47:35.368Z,15.90
2022-09-07T04:52:37.554Z,15.80
2022-09-07T04:57:39.882Z,15.80
2022-09-07T05:02:42.319Z,15.80
2022-09-07T05:07:45.187Z,15.80
2022-09-07T05:12:47.611Z,15.80
2022-09-07T05:17:51.131Z,15.70
2022-09-07T05:22:59.649Z,15.70
2022-09-07T05:28:02.173Z,15.70
2022-09-07T05:33:05.454Z,15.70
2022-09-07T05:38:07.700Z,15.70
2022-09-07T05:43:10.474Z,15.70
2022-09-07T05:48:12.909Z,15.70
2022-09-07T05:53:15.104Z,15.70
2022-09-07T05:58:18.389Z,15.70
2022-09-07T06:03:20.658Z,15.70
2022-09-07T06:08:22.916Z,15.70
2022-09-07T06:13:25.696Z,15.70
2022-09-07T06:18:32.395Z,15.80
2022-09-07T06:23:35.988Z,15.80
2022-09-07T06:28:41.313Z,15.80
2022-09-07T06:33:47.776Z,15.80
2022-09-07T06:38:51.258Z,15.80
2022-09-07T06:43:55.414Z,15.90
2022-09-07T06:48:57.822Z,15.90
2022-09-07T06:59:24.252Z,16.30
2022-09-07T07:04:26.462Z,16.50
2022-09-07T07:09:28.633Z,16.70
2022-09-07T07:14:33.797Z,16.80
2022-09-07T07:19:37.239Z,16.70
2022-09-07T07:24:39.400Z,16.70
2022-09-07T07:29:41.618Z,16.70
2022-09-07T07:34:43.749Z,16.70
2022-09-07T07:50:33.111Z,16.90
2022-09-07T07:55:45.075Z,17.00
2022-09-07T08:00:54.870Z,17.10
2022-09-07T08:06:04.866Z,17.20
2022-09-07T08:11:10.061Z,17.30
2022-09-07T08:16:13.593Z,17.50
2022-09-07T08:21:16.713Z,17.50
2022-09-07T08:26:18.866Z,17.70
2022-09-07T08:31:21.630Z,18.00
2022-09-07T08:36:23.768Z,18.10
2022-09-07T08:41:39.471Z,18.30
2022-09-07T08:47:01.888Z,18.60
2022-09-07T08:52:10.992Z,18.70
2022-09-07T08:57:21.117Z,19.00
2022-09-07T09:02:28.245Z,18.90
2022-09-07T09:07:46.765Z,18.90
2022-09-07T09:13:17.210Z,19.00
2022-09-07T09:18:27.354Z,19.00
2022-09-07T09:23:40.662Z,19.00
2022-09-07T09:28:42.838Z,19.10
2022-09-07T09:34:05.190Z,19.40
2022-09-07T09:39:31.431Z,19.40
2022-09-07T09:44:35.339Z,19.10
2022-09-07T09:49:40.617Z,18.90
2022-09-07T09:54:44.595Z,18.70
2022-09-07T10:00:05.209Z,18.70
2022-09-07T10:05:42.677Z,18.80
2022-09-07T10:11:13.691Z,19.00
2022-09-07T10:16:15.818Z,19.00
2022-09-07T10:21:29.507Z,19.20
2022-09-07T10:26:44.487Z,19.40
2022-09-07T10:32:12.609Z,19.70
2022-09-07T10:37:45.643Z,20.00
2022-09-07T10:48:58.716Z,20.50
2022-09-07T10:54:36.718Z,20.40
2022-09-07T11:00:10.442Z,20.10
2022-09-07T11:05:27.696Z,19.70
2022-09-07T11:10:48.229Z,19.40
2022-09-07T11:15:58.455Z,20.00
2022-09-07T11:21:05.225Z,20.50
2022-09-07T11:26:17.697Z,20.50
2022-09-07T11:31:48.440Z,20.40
2022-09-07T11:36:57.172Z,20.20
2022-09-07T11:47:37.223Z,19.80
2022-09-07T11:52:43.017Z,19.40
2022-09-07T11:57:55.771Z,19.40
2022-09-07T12:03:36.767Z,19.20
2022-09-07T12:09:12.618Z,18.90
2022-09-07T12:14:41.854Z,18.50
2022-09-07T12:19:44.275Z,18.40
2022-09-07T12:24:53.256Z,18.20
2022-09-07T12:29:58.625Z,17.90
2022-09-07T12:35:01.792Z,17.60
2022-09-07T12:40:29.218Z,17.50
2022-09-07T12:45:31.312Z,17.30
2022-09-07T12:51:10.184Z,17.40
2022-09-07T12:56:38.374Z,17.60
2022-09-07T13:02:18.560Z,17.90
2022-09-07T13:07:23.873Z,18.10
2022-09-07T13:12:56.840Z,18.00
2022-09-07T13:17:59.820Z,17.70
2022-09-07T13:23:17.725Z,17.60
2022-09-07T13:28:31.827Z,17.60
2022-09-07T13:33:44.812Z,17.50
2022-09-07T13:38:47.896Z,18.10
2022-09-07T13:43:51.249Z,19.00
2022-09-07T13:49:01.175Z,19.10
2022-09-07T13:54:27.336Z,19.30
2022-09-07T13:59:33.532Z,19.60
2022-09-07T14:04:41.677Z,20.90
2022-09-07T14:09:43.791Z,21.60
2022-09-07T14:14:46.796Z,21.80
2022-09-07T14:19:51.542Z,22.00
2022-09-07T14:24:59.506Z,21.80
2022-09-07T14:30:23.258Z,21.70
2022-09-07T14:35:33.799Z,21.50
2022-09-07T14:40:36.809Z,21.00
2022-09-07T14:45:38.924Z,20.60
2022-09-07T14:50:50.996Z,20.70
2022-09-07T14:56:09.538Z,21.50
2022-09-07T15:12:33.074Z,22.00
2022-09-07T15:17:43.834Z,21.90
2022-09-07T15:22:46.378Z,20.80
2022-09-07T15:27:48.643Z,21.40
2022-09-07T15:32:50.978Z,22.20
2022-09-07T15:38:01.820Z,22.10
2022-09-07T15:43:19.408Z,21.80
2022-09-07T15:48:25.201Z,22.00
2022-09-07T15:58:54.255Z,21.50
2022-09-07T16:03:58.010Z,21.20
2022-09-07T16:09:00.164Z,20.60
2022-09-07T16:14:03.654Z,20.40
2022-09-07T16:19:07.276Z,20.70
2022-09-07T16:24:10.021Z,20.40
2022-09-07T16:29:12.357Z,20.10
2022-09-07T16:34:18.416Z,19.80
2022-09-07T16:39:20.561Z,19.70
2022-09-07T16:44:23.202Z,19.70
2022-09-07T16:49:25.417Z,19.40
2022-09-07T16:54:27.572Z,19.70
2022-09-07T16:59:29.761Z,19.80
2022-09-07T17:04:31.976Z,20.10
2022-09-07T17:09:34.226Z,20.50
2022-09-07T17:14:36.303Z,20.30
2022-09-07T17:19:38.411Z,20.00
2022-09-07T17:24:40.609Z,19.60
2022-09-07T17:29:42.696Z,19.50
2022-09-07T17:34:45.091Z,19.80
2022-09-07T17:39:47.424Z,19.90
2022-09-07T17:44:52.737Z,19.90
2022-09-07T17:49:55.078Z,19.50
2022-09-07T17:54:57.914Z,19.10
2022-09-07T18:00:16.183Z,19.20
2022-09-07T18:05:18.402Z,19.20
2022-09-07T18:10:20.512Z,19.20
2022-09-07T18:15:22.697Z,19.10
2022-09-07T18:20:25.912Z,18.80
2022-09-07T18:25:31.209Z,18.50
2022-09-07T18:30:39.335Z,18.30
2022-09-07T18:35:45.813Z,18.10
2022-09-07T18:40:47.894Z,18.10
2022-09-07T18:45:50.068Z,18.00
2022-09-07T18:50:55.509Z,17.90
2022-09-07T18:56:03.796Z,17.80
2022-09-07T19:01:08.212Z,17.70
2022-09-07T19:06:15.222Z,17.60
2022-09-07T19:11:20.395Z,17.50
2022-09-07T19:16:23.228Z,17.40
2022-09-07T19:21:31.296Z,17.40
2022-09-07T19:26:36.760Z,17.30
2022-09-07T19:31:38.906Z,17.20
2022-09-07T19:36:41.028Z,17.10
2022-09-07T19:41:45.184Z,17.10
2022-09-07T19:46:47.456Z,17.10
2022-09-07T19:51:51.973Z,17.10
2022-09-07T19:56:54.289Z,17.00
2022-09-07T20:01:56.505Z,17.00
2022-09-07T20:06:58.689Z,16.90
2022-09-07T20:12:02.049Z,16.90
2022-09-07T20:17:04.280Z,16.80
2022-09-07T20:22:06.555Z,16.80
2022-09-07T20:27:09.265Z,16.80
2022-09-07T20:32:11.585Z,16.80
2022-09-07T20:37:13.783Z,16.80
2022-09-07T20:42:16.311Z,16.90
2022-09-07T20:47:18.418Z,16.80
2022-09-07T20:52:20.556Z,16.80
2022-09-07T20:57:22.691Z,16.80
2022-09-07T21:02:24.952Z,16.80
2022-09-07T21:07:27.153Z,16.80
2022-09-07T21:12:29.340Z,16.80
2022-09-07T21:17:31.613Z,16.70
2022-09-07T21:22:33.972Z,16.70
2022-09-07T21:27:38.756Z,16.60
2022-09-07T21:32:41.403Z,16.50
2022-09-07T21:37:43.560Z,16.50
2022-09-07T21:42:45.770Z,16.50
2022-09-07T21:47:47.893Z,16.50
2022-09-07T21:52:50.141Z,16.50
2022-09-07T21:57:52.690Z,16.50
2022-09-07T22:02:54.912Z,16.40
2022-09-07T22:07:57.038Z,16.40
2022-09-07T22:12:59.211Z,16.30
2022-09-07T22:18:01.368Z,16.40
2022-09-07T22:23:06.809Z,16.30
2022-09-07T22:28:08.936Z,16.40
2022-09-07T22:33:11.096Z,16.40
2022-09-07T22:38:13.584Z,16.40
2022-09-07T22:43:15.674Z,16.40
2022-09-07T22:48:17.861Z,16.40
2022-09-07T22:53:20.674Z,16.40
2022-09-07T22:58:29.027Z,16.40
2022-09-07T23:03:33.623Z,16.40
2022-09-07T23:08:36.000Z,16.40
2022-09-07T23:13:38.150Z,16.40
2022-09-07T23:18:43.172Z,16.40
2022-09-07T23:23:50.521Z,16.40
2022-09-07T23:29:00.809Z,16.40
2022-09-07T23:34:04.059Z,16.40
2022-09-07T23:39:06.211Z,16.30
2022-09-07T23:44:08.553Z,16.40
2022-09-07T23:49:10.961Z,16.40
2022-09-07T23:54:13.507Z,16.40
2022-09-07T23:59:15.691Z,16.30
